Archival Weather

Chicago O'Hare International

Chicago, Illinois (KORD)

Report from: Tuesday, December 6, 2022 2:51 PM CST
Current time: Saturday, February 4, 2023 12:46 AM CST

Current weather
Weather history
Weather forecast

Present weatherMist
Temperature5.6°C (42.1°F)
Wind chill2.8°C (37.1°F)
Dew point2.2°C (36.0°F)
Winds 7 kts (3.6 m/s, 8.1 mph) North-Northeast (30°)
Visibility6 mi. (9.7 km)
Clouds Ceiling: Overcast 1,000 ft. (305 m)
Altimeter30.00 in.Hg (1016 mB)
Relative humidity79 %
Density altitude-1,119 ft. (-341 m)
Sea-level pressure101.6 kPa (1016 mB, 30.01 in.Hg)
Remarks Automated weather observing station with precipitation discriminator
Pressure rising more quickly
Flight conditions Marginal Visual Meteorological Conditions
Raw dataKORD 062051Z 03007KT 6SM BR OVC010 06/02 A3000 RMK AO2 SLP164 T00560022 53000
An unhandled exception has occurred. See browser dev tools for details. Reload 🗙